Flight Track Log - Related Links

Times and Time Zones

All times are in EDT time to prevent confusion due to time zone crossing. See the DAL1981 flight status page for this flight to view local times or setup timezone preferences in your user account.

Time Position Orientation Groundspeed Altitude Reporting Facility
EDT Latitude Longitude Course Direction KTS MPH feet Rate Location/Type
Sat 03:59:44 PM 38.6500 -121.5333 78° East 192 221 2,200  Level Northern Cal TRACON
Sat 04:00:38 PM 38.6500 -121.4500 90° East 263 303 3,800 2,350 Climbing Northern Cal TRACON
Sat 04:01:00 PM 38.5022 -121.2267 67° East  Level FlightAware Approximate
Sat 04:01:44 PM 38.6500 -121.3500 90° East 305 351 6,900  Level Northern Cal TRACON
Sat 04:02:00 PM 38.5415 -121.0595 76° East  Level FlightAware Approximate
Sat 04:02:38 PM 38.6500 -121.2667 90° East 282 325 9,100  Level Northern Cal TRACON
Sat 04:03:00 PM 38.5714 -120.8888 78° East  Level FlightAware Approximate
Sat 04:03:38 PM 38.6667 -121.1500 80° East 314 361 10,700  Level Northern Cal TRACON
Sat 04:04:00 PM 38.5998 -120.7176 78° East  Level FlightAware Approximate
Sat 04:04:10 PM 38.6644 -121.1089 94° East 323 372 11,100  Level Oakland Center
Sat 04:05:11 PM 38.6731 -120.9756 85° East 365 420 13,400 2,049 Climbing Oakland Center
Sat 04:06:13 PM 38.6822 -120.8097 86° East 391 450 15,300 1,805 Climbing Oakland Center
Sat 04:07:14 PM 38.7103 -120.6692 76° East 421 484 17,100 1,610 Climbing Oakland Center
Sat 04:08:16 PM 38.7583 -120.5322 66° East 422 486 18,600 927 Climbing Oakland Center
Sat 04:09:17 PM 38.8100 -120.3914 65° Northeast 433 498 19,000 683 Climbing Oakland Center
Sat 04:10:19 PM 38.8614 -120.2503 65° Northeast 437 503 20,000 1,268 Climbing Oakland Center
Sat 04:11:20 PM 38.9119 -120.1047 66° East 443 510 21,600 1,512 Climbing Oakland Center
Sat 04:12:22 PM 38.9703 -119.9467 65° Northeast 455 524 23,100 1,317 Climbing Oakland Center
Sat 04:13:23 PM 39.0236 -119.7953 66° East 463 533 24,300 1,268 Climbing Oakland Center
Sat 04:14:25 PM 39.0797 -119.6394 65° Northeast 477 549 25,700 1,171 Climbing Oakland Center
Sat 04:15:26 PM 39.1358 -119.4817 65° Northeast 484 557 26,700 927 Climbing Oakland Center
Sat 04:16:28 PM 39.1919 -119.3208 66° East 492 566 27,600 976 Climbing Oakland Center
Sat 04:17:29 PM 39.2586 -119.1250 66° East 497 572 28,700 927 Climbing Oakland Center
Sat 04:18:31 PM 39.3086 -118.9817 66° East 500 575 29,500 927 Climbing Oakland Center
Sat 04:19:32 PM 39.3650 -118.8175 66° East 498 573 30,600 934 Climbing Oakland Center
Sat 04:20:33 PM 39.4236 -118.6483 66° East 510 587 31,400 895 Climbing Oakland Center
Sat 04:22:33 PM 39.5358 -118.3147 66° East 502 578 33,300 923 Climbing Salt Lake Center
Sat 04:23:35 PM 39.5906 -118.1506 67° East 499 574 34,200 762 Climbing Salt Lake Center
Sat 04:24:39 PM 39.6581 -117.9497 66° East 505 581 34,900 381 Climbing Oakland Center
Sat 04:25:41 PM 39.7142 -117.7844 66° East 502 578 35,000 49 Climbing Oakland Center
Sat 04:26:42 PM 39.7675 -117.6153 68° East 506 582 35,000  Level Oakland Center
Sat 04:28:45 PM 39.8819 -117.2714 66° East 498 573 35,000  Level Oakland Center
Sat 04:29:46 PM 39.9325 -117.1128 67° East 497 572 35,000  Level Oakland Center
Sat 04:30:48 PM 39.9914 -116.9267 68° East 499 574 35,000  Level Oakland Center
Sat 04:31:49 PM 40.0419 -116.7667 68° East 501 577 35,000  Level Oakland Center
Sat 04:32:50 PM 40.1019 -116.5753 68° East 505 581 35,000  Level Oakland Center
Sat 04:33:54 PM 40.1531 -116.4156 67° East 506 582 35,000  Level Salt Lake Center
Sat 04:34:56 PM 40.2128 -116.2278 67° East 505 581 35,000  Level Salt Lake Center
Sat 04:35:58 PM 40.2628 -116.0639 68° East 508 585 35,000  Level Salt Lake Center
Sat 04:37:00 PM 40.3211 -115.8733 68° East 506 582 35,000  Level Salt Lake Center
Sat 04:38:02 PM 40.3744 -115.7100 67° East 509 586 35,000  Level Salt Lake Center
Sat 04:39:04 PM 40.4347 -115.5194 67° East 508 585 35,000  Level Salt Lake Center
Sat 04:40:06 PM 40.4836 -115.3550 69° East 507 583 35,000  Level Salt Lake Center
Sat 04:41:08 PM 40.5361 -115.1642 70° East 501 577 35,000  Level Salt Lake Center
Sat 04:42:10 PM 40.5906 -115.0008 66° East 507 583 35,000  Level Salt Lake Center
Sat 04:43:12 PM 40.6469 -114.8100 69° East 503 579 35,000  Level Salt Lake Center
Sat 04:44:14 PM 40.6908 -114.6597 69° East 503 579 35,000  Level Salt Lake Center
Sat 04:45:16 PM 40.7514 -114.4542 69° East 502 578 35,000  Level Salt Lake Center
Sat 04:46:18 PM 40.8019 -114.2836 69° East 501 577 35,000  Level Salt Lake Center
Sat 04:47:19 PM 40.8508 -114.1100 70° East 504 580 35,000  Level Salt Lake Center
Sat 04:48:21 PM 40.9000 -113.9378 69° East 503 579 35,000  Level Salt Lake Center
Sat 04:49:23 PM 40.9492 -113.7653 69° East 502 578 35,000  Level Salt Lake Center
Sat 04:50:25 PM 40.9972 -113.5919 70° East 503 579 35,000  Level Salt Lake Center
Sat 04:51:27 PM 41.0450 -113.4189 70° East 502 578 35,000  Level Salt Lake Center
Sat 04:52:29 PM 41.1047 -113.2092 69° East 506 582 35,000  Level Salt Lake Center
Sat 04:53:31 PM 41.1525 -113.0328 70° East 509 586 35,000  Level Salt Lake Center
Sat 04:54:33 PM 41.2017 -112.8556 70° East 511 588 35,000  Level Salt Lake Center
Sat 04:55:35 PM 41.2497 -112.6769 70° East 514 592 35,000  Level Salt Lake Center
Sat 04:56:37 PM 41.2989 -112.4986 70° East 513 590 35,000  Level Salt Lake Center
Sat 04:57:38 PM 41.3469 -112.3200 70° East 511 588 35,000  Level Salt Lake Center
Sat 04:58:40 PM 41.3950 -112.1408 70° East 510 587 35,000  Level Salt Lake Center
Sat 04:59:42 PM 41.4519 -111.9247 71° East 512 589 35,000  Level Salt Lake Center
Sat 05:00:44 PM 41.5003 -111.7447 70° East 512 589 35,000  Level Salt Lake Center
Sat 05:01:46 PM 41.5478 -111.5631 71° East 516 594 35,000  Level Salt Lake Center
Sat 05:02:48 PM 41.5942 -111.3822 71° East 515 593 35,000  Level Salt Lake Center
Sat 05:03:50 PM 41.6397 -111.2025 71° East 509 586 35,000  Level Salt Lake Center
Sat 05:04:52 PM 41.6872 -111.0228 70° East 513 590 35,000  Level Salt Lake Center
Sat 05:05:54 PM 41.7394 -110.8147 71° East 517 595 35,000  Level Salt Lake Center
Sat 05:06:56 PM 41.7839 -110.6408 71° East 516 594 35,000  Level Salt Lake Center
Sat 05:07:58 PM 41.8339 -110.4361 72° East 518 596 35,000  Level Salt Lake Center
Sat 05:09:00 PM 41.8781 -110.2592 71° East 521 600 35,000  Level Salt Lake Center
Sat 05:10:02 PM 41.9208 -110.0828 72° East 520 598 35,000  Level Salt Lake Center
Sat 05:11:04 PM 41.9714 -109.8772 72° East 519 597 35,000  Level Salt Lake Center
Sat 05:12:06 PM 42.0150 -109.6986 72° East 523 602 35,000  Level Salt Lake Center
Sat 05:13:08 PM 42.0647 -109.4900 72° East 523 602 35,000  Level Salt Lake Center
Sat 05:14:10 PM 42.1083 -109.3108 72° East 523 602 35,000  Level Salt Lake Center
Sat 05:15:12 PM 42.1578 -109.1022 72° East 522 601 35,000  Level Salt Lake Center
Sat 05:16:14 PM 42.1994 -108.9222 73° East 523 602 35,000  Level Salt Lake Center
Sat 05:17:16 PM 42.2489 -108.7111 72° East 527 606 35,000  Level Salt Lake Center
Sat 05:18:18 PM 42.2908 -108.5294 73° East 529 609 35,000  Level Salt Lake Center
Sat 05:19:19 PM 42.3314 -108.3472 73° East 529 609 35,000  Level Salt Lake Center
Sat 05:20:21 PM 42.3789 -108.1361 73° East 525 604 35,000  Level Salt Lake Center
Sat 05:21:23 PM 42.4194 -107.9553 73° East 526 605 35,000  Level Salt Lake Center
Sat 05:22:25 PM 42.4675 -107.7456 73° East 523 602 35,000  Level Salt Lake Center
Sat 05:23:27 PM 42.5056 -107.5622 74° East 526 605 35,000  Level Salt Lake Center
Sat 05:24:29 PM 42.5511 -107.3489 74° East 529 609 35,000  Level Salt Lake Center
Sat 05:25:31 PM 42.5903 -107.1650 74° East 529 609 35,000  Level Salt Lake Center
Sat 05:26:33 PM 42.6342 -106.9664 73° East 533 613 35,000  Level Salt Lake Center
Sat 05:27:35 PM 42.6803 -106.7511 74° East 534 615 35,000 48 Level Salt Lake Center
Sat 05:28:39 PM 42.7189 -106.5633 74° East 535 616 35,100  Climbing Denver Center
Sat 05:29:41 PM 42.7631 -106.3458 74° East 532 612 35,000 -48 Descending Denver Center
Sat 05:30:43 PM 42.8019 -106.1600 74° East 534 615 35,000  Level Denver Center
Sat 05:31:45 PM 42.8456 -105.9417 75° East 535 616 35,000  Level Denver Center
Sat 05:32:47 PM 42.8844 -105.7531 74° East 539 620 35,000  Level Denver Center
Sat 05:33:49 PM 42.9272 -105.5322 75° East 538 619 35,000  Level Denver Center
Sat 05:34:50 PM 42.9667 -105.3442 74° East 533 613 35,000  Level Denver Center
Sat 05:35:52 PM 43.0025 -105.1550 75° East 536 617 35,000  Level Denver Center
Sat 05:36:54 PM 43.0456 -104.9358 75° East 532 612 35,000  Level Denver Center
Sat 05:37:56 PM 43.0817 -104.7478 75° East 532 612 35,000  Level Denver Center
Sat 05:38:58 PM 43.1236 -104.5261 75° East 535 616 35,000  Level Denver Center
Sat 05:40:00 PM 43.1592 -104.3356 76° East 537 618 35,000  Level Denver Center
Sat 05:41:02 PM 43.1939 -104.1442 76° East 538 619 35,000  Level Denver Center
Sat 05:42:03 PM 43.2339 -103.9233 76° East 535 616 35,000  Level Denver Center
Sat 05:43:05 PM 43.2683 -103.7353 76° East 531 611 35,000  Level Denver Center
Sat 05:44:07 PM 43.3067 -103.5142 77° East 532 612 35,000  Level Denver Center
Sat 05:45:09 PM 43.3406 -103.3250 76° East 533 613 35,000  Level Denver Center
Sat 05:46:11 PM 43.3797 -103.1028 76° East 535 616 35,000  Level Denver Center
Sat 05:47:12 PM 43.4133 -102.9131 76° East 535 616 35,000  Level Denver Center
Sat 05:48:14 PM 43.4447 -102.7214 77° East 537 618 35,000  Level Denver Center
Sat 05:49:16 PM 43.4831 -102.4978 77° East 538 619 35,000  Level Denver Center
Sat 05:50:18 PM 43.5147 -102.3067 77° East 537 618 35,000  Level Denver Center
Sat 05:51:20 PM 43.5506 -102.0869 77° East 535 616 35,000  Level Denver Center
Sat 05:52:22 PM 43.5825 -101.8856 78° East 539 620 35,000  Level Denver Center
Sat 05:53:23 PM 43.6158 -101.6858 77° East 538 619 35,000  Level Denver Center
Sat 05:54:16 PM 43.6419 -101.5281 77° East 535 616 35,000  Level Minneapolis Center
Sat 05:55:17 PM 43.6792 -101.2883 78° East 535 616 35,000  Level Minneapolis Center
Sat 05:56:19 PM 43.7111 -101.0903 77° East 532 612 35,000  Level Minneapolis Center
Sat 05:57:21 PM 43.7411 -100.8900 78° East 533 613 35,000 49 Level Minneapolis Center
Sat 05:58:22 PM 43.7722 -100.6853 78° East 541 623 35,100  Climbing Minneapolis Center
Sat 05:59:24 PM 43.8022 -100.4814 78° East 543 625 35,000 -48 Descending Minneapolis Center
Sat 06:00:26 PM 43.8325 -100.2767 78° East 545 627 35,000  Level Minneapolis Center
Sat 06:01:28 PM 43.8628 -100.0731 78° East 544 626 35,000  Level Minneapolis Center
Sat 06:02:29 PM 43.8983 -99.8269 79° East 545 627 35,000  Level Minneapolis Center
Sat 06:03:31 PM 43.9264 -99.6211 79° East 545 627 35,000  Level Minneapolis Center
Sat 06:04:33 PM 43.9558 -99.4153 79° East 546 628 35,000  Level Minneapolis Center
Sat 06:05:34 PM 43.9850 -99.2097 79° East 546 628 35,000  Level Minneapolis Center
Sat 06:06:36 PM 44.0125 -99.0028 79° East 547 629 35,000  Level Minneapolis Center
Sat 06:07:38 PM 44.0408 -98.7967 79° East 547 629 35,000  Level Minneapolis Center
Sat 06:08:40 PM 44.0733 -98.5503 80° East 543 625 35,000  Level Minneapolis Center
Sat 06:09:41 PM 44.1011 -98.3428 79° East 545 627 35,000  Level Minneapolis Center
Sat 06:10:55 PM 44.1331 -98.0947 80° East 545 627 35,000  Level Minneapolis Center
Sat 06:11:57 PM 44.1578 -97.8858 81° East 546 628 35,000  Level Minneapolis Center
Sat 06:12:59 PM 44.1833 -97.6781 80° East 546 628 35,000  Level Minneapolis Center
Sat 06:14:01 PM 44.2111 -97.4700 79° East 548 631 35,000  Level Minneapolis Center
Sat 06:15:02 PM 44.2450 -97.2650 77° East 545 627 35,000 -488 Level Minneapolis Center
Sat 06:16:04 PM 44.2836 -97.0189 78° East 540 621 34,000 -968 Descending Minneapolis Center
Sat 06:17:06 PM 44.3153 -96.8150 78° East 540 621 33,000 -968 Descending Minneapolis Center
Sat 06:18:08 PM 44.3481 -96.6078 77° East 543 625 32,000 -976 Descending Minneapolis Center
Sat 06:19:09 PM 44.3792 -96.4000 78° East 542 624 31,000 -976 Descending Minneapolis Center
Sat 06:20:11 PM 44.4114 -96.1897 78° East 543 625 30,000 -919 Descending Minneapolis Center
Sat 06:21:13 PM 44.4417 -95.9814 78° East 540 621 29,100 -484 Descending Minneapolis Center
Sat 06:22:15 PM 44.4728 -95.7744 78° East 541 623 29,000 -244 Descending Minneapolis Center
Sat 06:23:16 PM 44.5011 -95.5681 79° East 539 620 28,600 -1,073 Descending Minneapolis Center
Sat 06:24:18 PM 44.5306 -95.3644 78° East 536 617 26,800 -2,081 Descending Minneapolis Center
Sat 06:25:20 PM 44.5569 -95.1647 79° East 523 602 24,300 -2,585 Descending Minneapolis Center
Sat 06:26:21 PM 44.5886 -94.9436 79° East 487 560 21,500 -2,537 Descending Minneapolis Center
Sat 06:27:23 PM 44.6131 -94.7697 79° East 466 536 19,100 -2,081 Descending Minneapolis Center
Sat 06:28:25 PM 44.6331 -94.6203 79° East 445 512 17,200 -2,098 Descending Minneapolis Center
Sat 06:29:26 PM 44.6547 -94.4575 79° East 426 490 14,800 -2,537 Descending Minneapolis Center
Sat 06:30:28 PM 44.6794 -94.2711 79° East 404 465 12,000 -1,839 Descending Minneapolis Center
Sat 06:31:30 PM 44.7011 -94.1200 79° East 399 459 11,000 -488 Descending Minneapolis Center
Sat 06:32:31 PM 44.7336 -93.9772 72° East 387 445 11,000  Level Minneapolis Center
Sat 06:33:33 PM 44.7658 -93.8317 73° East 388 447 11,000  Level Minneapolis Center
Sat 06:34:34 PM 44.7975 -93.6911 72° East 380 437 11,000 -49 Level Minneapolis Center
Sat 06:35:36 PM 44.8286 -93.5492 73° East 378 435 10,900 -677 Descending Minneapolis Center
Sat 06:36:38 PM 44.8544 -93.4275 73° East 319 367 9,600 -1,415 Descending Minneapolis Center
Sat 06:37:39 PM 44.8275 -93.3200 109° East 298 343 8,000 -878 Descending Minneapolis Center
Sat 06:38:41 PM 44.7853 -93.2269 123° Southeast 274 315 7,800 -919 Descending Minneapolis Center
Sat 06:39:43 PM 44.7469 -93.1414 122° Southeast 248 285 6,100 -1,463 Descending Minneapolis Center
Sat 06:40:44 PM 44.7439 -93.0625 93° East 224 258 4,800 -1,463 Descending Minneapolis Center
Sat 06:41:46 PM 44.8014 -93.0603 North 193 222 3,100 -1,220 Descending Minneapolis Center
Sat 06:42:47 PM 44.8347 -93.1117 312° West 181 208 2,300 -780 Descending Minneapolis Center
Sat 06:43:49 PM 44.8547 -93.1583 301° West 144 166 1,500 -774 Descending Minneapolis Center

Login

Don't have an account? Register now (free) for customized features, flight alerts, and more!